Time;durP1;ratioP1;P1;durP2;ratioP2;P2;SDS_P1;SDS_P2;PMS_P1;PMS_P2;Temp;Humidity;BMP_temperature;BMP_pressure;BME280_temperature;BME280_humidity;BME280_pressure;Samples;Min_cycle;Max_cycle;Signal;HPM_P1;HPM_P2
2022/08/14 00:00:16;;;;;;;4.10;3.70;;;;;;;33.95;33.74;97774.97;5091585;28;20104;-82
2022/08/14 00:02:43;;;;;;;5.38;4.00;;;;;;;33.50;34.31;97772.28;5085520;28;20500;-81
2022/08/14 00:05:12;;;;;;;4.47;4.05;;;;;;;33.40;34.54;97775.31;5088002;28;20032;-81
2022/08/14 00:07:39;;;;;;;4.38;3.97;;;;;;;32.90;35.06;97776.91;5090059;28;20031;-82
2022/08/14 00:10:07;;;;;;;5.28;4.78;;;;;;;33.43;34.33;97765.78;5090981;28;20047;-81
2022/08/14 00:12:36;;;;;;;5.88;4.53;;;;;;;32.81;35.45;97764.91;5089633;28;20036;-81
2022/08/14 00:15:07;;;;;;;6.45;5.85;;;;;;;32.62;35.97;97764.47;5087979;28;20028;-81
2022/08/14 00:17:33;;;;;;;5.53;5.03;;;;;;;32.12;36.70;97768.72;5090176;28;20077;-81
2022/08/14 00:19:59;;;;;;;6.25;4.78;;;;;;;33.00;35.32;97766.91;5092621;28;20069;-82
2022/08/14 00:22:25;;;;;;;5.85;5.03;;;;;;;32.99;35.19;97771.03;5091070;28;20039;-81
2022/08/14 00:24:51;;;;;;;7.68;5.10;;;;;;;33.20;35.12;97760.41;5091531;28;20411;-82
2022/08/14 00:27:17;;;;;;;5.03;4.55;;;;;;;33.47;34.41;97750.53;5090325;28;20040;-81
2022/08/14 00:29:44;;;;;;;4.45;3.97;;;;;;;33.28;34.88;97752.97;5086453;28;20047;-81
2022/08/14 00:32:12;;;;;;;5.78;4.55;;;;;;;33.62;34.34;97749.09;5089695;28;20126;-83
2022/08/14 00:34:38;;;;;;;4.60;4.18;;;;;;;33.84;33.46;97754.94;5089320;28;20043;-82
2022/08/14 00:37:04;;;;;;;3.80;3.40;;;;;;;34.12;33.18;97740.88;5089619;28;20035;-81
2022/08/14 00:39:31;;;;;;;4.38;4.00;;;;;;;34.04;33.10;97740.59;5082155;28;20059;-81
2022/08/14 00:41:57;;;;;;;3.90;3.60;;;;;;;34.29;32.63;97744.56;5090622;28;20032;-81
2022/08/14 00:44:23;;;;;;;4.70;4.20;;;;;;;34.37;32.46;97742.78;5091080;28;20051;-81
2022/08/14 00:46:49;;;;;;;3.50;3.20;;;;;;;34.33;32.61;97735.78;5086924;28;20032;-81
2022/08/14 00:49:16;;;;;;;4.13;3.83;;;;;;;34.31;32.58;97727.72;5083039;28;20028;-82
2022/08/14 00:51:44;;;;;;;7.10;3.80;;;;;;;34.26;32.65;97727.72;5082823;28;20047;-81
2022/08/14 00:54:11;;;;;;;4.10;3.65;;;;;;;33.49;34.27;97725.97;5085929;28;20421;-82
2022/08/14 00:56:38;;;;;;;4.18;3.85;;;;;;;33.18;34.49;97726.75;5090648;28;20032;-81
2022/08/14 00:59:04;;;;;;;5.13;4.63;;;;;;;33.27;34.14;97725.78;5092268;28;20030;-81
2022/08/14 01:01:32;;;;;;;5.45;4.63;;;;;;;33.23;34.46;97734.56;5090944;28;20095;-81
2022/08/14 01:04:00;;;;;;;4.28;3.88;;;;;;;32.56;36.11;97738.00;5081906;28;20387;-81
2022/08/14 01:06:28;;;;;;;5.70;4.20;;;;;;;32.82;34.87;97735.16;5079384;28;20056;-81
2022/08/14 01:08:54;;;;;;;4.47;4.18;;;;;;;33.28;34.47;97722.44;5085519;28;20020;-81
2022/08/14 01:11:21;;;;;;;4.53;4.13;;;;;;;33.38;34.22;97723.81;5084520;28;20119;-81
2022/08/14 01:13:52;;;;;;;6.05;4.28;;;;;;;32.51;35.68;97722.47;5086692;28;20117;-81
2022/08/14 01:16:19;;;;;;;5.25;4.75;;;;;;;31.02;38.86;97725.97;5084802;28;20036;-81
2022/08/14 01:21:38;;;;;;;6.45;5.78;;;;;;;30.25;40.49;97720.38;5084288;28;20066;-81
2022/08/14 01:24:15;;;;;;;6.70;4.72;;;;;;;31.17;39.05;97719.03;5084341;28;20051;-81
2022/08/14 01:26:42;;;;;;;5.30;4.80;;;;;;;31.93;37.39;97719.88;5084999;28;20047;-81
2022/08/14 01:29:08;;;;;;;5.60;4.97;;;;;;;32.12;36.96;97712.69;5086794;28;20076;-81
2022/08/14 01:34:09;;;;;;;5.18;4.70;;;;;;;32.64;35.33;97719.25;5088435;28;20068;-82
2022/08/14 01:36:36;;;;;;;5.10;4.60;;;;;;;32.95;34.80;97716.44;5090329;28;20032;-81
2022/08/14 01:39:11;;;;;;;4.95;4.45;;;;;;;33.20;34.60;97714.88;5080226;28;20119;-81
2022/08/14 01:41:37;;;;;;;4.38;3.97;;;;;;;33.22;34.65;97710.22;5085077;28;20036;-81
2022/08/14 01:44:09;;;;;;;4.95;4.53;;;;;;;33.83;33.35;97710.66;5085928;28;20039;-81
2022/08/14 01:46:39;;;;;;;4.25;3.90;;;;;;;33.28;34.12;97713.88;5080380;28;21804;-81
2022/08/14 01:49:08;;;;;;;4.10;3.70;;;;;;;33.32;34.58;97713.66;5088416;28;20036;-81
2022/08/14 01:51:35;;;;;;;4.57;4.07;;;;;;;33.71;33.54;97711.88;5089409;28;20117;-82
2022/08/14 01:54:10;;;;;;;3.53;3.00;;;;;;;34.04;32.91;97717.00;5090997;28;20046;-83
2022/08/14 01:56:38;;;;;;;3.70;3.40;;;;;;;34.22;32.59;97710.06;5086738;28;20028;-81
2022/08/14 01:59:32;;;;;;;3.95;3.63;;;;;;;33.88;33.06;97712.75;5083037;28;20032;-81
2022/08/14 02:02:02;;;;;;;4.10;3.80;;;;;;;31.66;37.33;97718.25;5085214;28;20036;-82
2022/08/14 02:04:32;;;;;;;4.63;4.23;;;;;;;32.36;36.02;97715.28;5087863;28;20032;-82
2022/08/14 02:06:59;;;;;;;3.90;3.60;;;;;;;32.63;35.19;97711.97;5090638;28;20290;-81
2022/08/14 02:09:26;;;;;;;4.20;3.70;;;;;;;33.53;33.71;97706.59;5083948;28;20043;-81
2022/08/14 02:11:53;;;;;;;4.70;3.85;;;;;;;31.67;37.18;97713.34;5088378;28;20128;-81
2022/08/14 02:14:19;;;;;;;4.28;3.97;;;;;;;32.28;36.13;97714.94;5081378;28;20063;-81
2022/08/14 02:16:51;;;;;;;4.80;4.40;;;;;;;32.27;36.29;97713.38;5082610;28;20110;-81
2022/08/14 02:19:23;;;;;;;4.45;4.05;;;;;;;32.67;35.22;97696.25;5085882;28;20034;-81
2022/08/14 02:21:53;;;;;;;3.85;3.55;;;;;;;32.99;34.68;97707.69;5085741;28;20526;-81
2022/08/14 02:24:22;;;;;;;5.28;4.78;;;;;;;32.58;35.52;97710.66;5083923;28;20036;-81
2022/08/14 02:26:49;;;;;;;3.90;3.55;;;;;;;32.31;36.01;97713.16;5085386;28;20515;-81
2022/08/14 02:29:22;;;;;;;5.03;4.57;;;;;;;31.73;37.69;97706.47;5084363;28;20032;-81
2022/08/14 02:31:51;;;;;;;4.47;4.07;;;;;;;32.15;36.58;97702.38;5076482;28;20039;-81
2022/08/14 02:34:20;;;;;;;4.93;4.43;;;;;;;31.35;38.06;97698.16;5106322;27;20039;-83
2022/08/14 02:36:50;;;;;;;7.00;6.30;;;;;;;30.04;41.15;97696.00;5094749;28;20058;-81
2022/08/14 02:39:16;;;;;;;11.77;6.30;;;;;;;30.47;40.15;97698.19;5093462;28;20039;-81
2022/08/14 02:41:43;;;;;;;6.80;6.10;;;;;;;30.30;40.43;97704.75;5087282;28;20115;-81
2022/08/14 02:44:11;;;;;;;10.48;6.10;;;;;;;29.13;43.48;97699.34;5088525;28;20032;-81
2022/08/14 02:46:38;;;;;;;6.05;5.55;;;;;;;30.16;40.91;97700.63;5089489;28;20086;-81
2022/08/14 02:49:05;;;;;;;6.45;5.65;;;;;;;29.49;42.78;97697.63;5089367;28;20434;-81
2022/08/14 02:51:34;;;;;;;8.80;7.97;;;;;;;28.97;43.89;97694.06;5087007;28;20045;-80
2022/08/14 02:54:00;;;;;;;9.20;6.65;;;;;;;29.22;43.34;97690.09;5088596;28;20036;-81
2022/08/14 02:56:27;;;;;;;7.18;6.15;;;;;;;30.11;41.08;97700.53;5086934;28;20523;-81
2022/08/14 02:58:56;;;;;;;7.30;5.75;;;;;;;30.39;40.38;97697.00;5089472;28;20035;-81
2022/08/14 03:01:23;;;;;;;6.20;5.60;;;;;;;31.52;38.05;97690.69;5086238;28;20043;-81
2022/08/14 03:03:50;;;;;;;6.15;5.55;;;;;;;31.67;37.36;97699.16;5089952;28;20424;-81
2022/08/14 03:06:19;;;;;;;5.70;5.20;;;;;;;30.92;39.17;97696.97;5088856;28;20068;-81
2022/08/14 03:08:47;;;;;;;9.07;6.55;;;;;;;31.00;38.65;97692.44;5088427;28;20031;-81
2022/08/14 03:11:13;;;;;;;4.30;3.90;;;;;;;31.76;37.38;97694.13;5091729;28;20020;-81
2022/08/14 03:13:50;;;;;;;5.25;4.75;;;;;;;32.01;36.82;97693.44;5087832;28;20043;-81
2022/08/14 03:16:19;;;;;;;4.88;4.38;;;;;;;31.30;38.01;97693.16;5086624;28;20046;-81
2022/08/14 03:18:47;;;;;;;5.20;4.70;;;;;;;31.64;37.65;97692.41;5087206;28;20028;-81
2022/08/14 03:21:16;;;;;;;5.25;4.78;;;;;;;32.02;36.90;97688.56;5088319;28;20066;-81
2022/08/14 03:23:45;;;;;;;4.90;4.50;;;;;;;31.08;38.84;97687.16;5090166;28;20056;-82
2022/08/14 03:26:14;;;;;;;5.45;4.95;;;;;;;30.87;38.85;97686.28;5087326;28;20042;-82
2022/08/14 03:28:42;;;;;;;4.07;3.78;;;;;;;31.07;38.63;97696.91;5089873;28;20048;-82
2022/08/14 03:31:09;;;;;;;4.72;4.30;;;;;;;31.38;37.97;97686.59;5087000;28;20032;-82
2022/08/14 03:33:39;;;;;;;4.78;4.28;;;;;;;32.00;36.65;97688.25;5083645;28;20111;-82
2022/08/14 03:36:11;;;;;;;5.15;4.50;;;;;;;32.44;35.94;97688.75;5091894;28;20391;-82
2022/08/14 03:38:41;;;;;;;4.07;3.75;;;;;;;32.98;35.04;97681.28;5093153;28;20036;-82
2022/08/14 03:41:13;;;;;;;3.97;3.65;;;;;;;32.89;34.97;97678.63;5084928;28;20049;-83
2022/08/14 03:43:44;;;;;;;3.67;3.38;;;;;;;32.86;35.09;97684.56;5090085;28;20031;-83
2022/08/14 03:46:12;;;;;;;4.30;3.90;;;;;;;31.96;36.51;97691.31;5086423;28;20062;-83
2022/08/14 03:48:40;;;;;;;3.92;3.63;;;;;;;32.65;35.43;97687.47;5087853;28;20028;-83
2022/08/14 03:51:07;;;;;;;3.75;3.45;;;;;;;33.22;34.32;97681.00;5086084;28;20495;-83
2022/08/14 03:53:40;;;;;;;3.92;3.63;;;;;;;33.78;33.66;97674.38;5089681;28;20040;-83
2022/08/14 03:56:11;;;;;;;3.72;3.33;;;;;;;34.02;32.68;97686.16;5087126;28;20056;-83
2022/08/14 03:58:44;;;;;;;3.72;3.38;;;;;;;34.24;32.43;97682.63;5083492;28;20028;-82
2022/08/14 04:01:12;;;;;;;2.75;2.55;;;;;;;33.12;34.71;97685.28;5089972;28;20095;-83
2022/08/14 04:03:38;;;;;;;3.42;3.13;;;;;;;31.92;36.51;97690.72;5084050;28;20032;-84
2022/08/14 04:06:07;;;;;;;3.40;3.10;;;;;;;32.22;36.50;97693.44;5087898;28;20035;-84
2022/08/14 04:08:41;;;;;;;3.67;3.38;;;;;;;32.20;36.46;97696.78;5085156;28;20024;-84
2022/08/14 04:11:09;;;;;;;3.83;3.53;;;;;;;31.87;36.81;97694.28;5090982;28;20032;-85
2022/08/14 04:13:38;;;;;;;4.45;4.05;;;;;;;31.85;36.91;97691.16;5091605;28;20039;-84
2022/08/14 04:16:07;;;;;;;4.90;4.00;;;;;;;32.46;36.13;97688.28;5088530;28;20098;-84
2022/08/14 04:18:38;;;;;;;4.80;4.40;;;;;;;31.87;37.19;97687.81;5090705;28;20028;-84
2022/08/14 04:21:04;;;;;;;;;;;;;;;31.87;36.64;97691.44;5086250;28;20066;-85
2022/08/14 04:23:32;;;;;;;5.53;4.20;;;;;;;32.52;35.82;97689.13;5090753;28;19919;-84
2022/08/14 04:26:00;;;;;;;5.20;4.70;;;;;;;31.47;37.85;97685.72;5089820;28;20036;-84
2022/08/14 04:28:27;;;;;;;3.85;3.55;;;;;;;32.55;35.82;97688.94;5086269;28;20046;-84
2022/08/14 04:30:53;;;;;;;4.40;3.85;;;;;;;33.22;34.73;97681.78;5088865;28;20036;-84
2022/08/14 04:33:23;;;;;;;4.80;4.35;;;;;;;32.52;35.76;97683.44;5089356;28;20028;-85
2022/08/14 04:35:51;;;;;;;8.48;6.55;;;;;;;30.70;39.13;97685.97;5089812;28;20040;-84
2022/08/14 04:43:49;;;;;;;5.43;4.82;;;;;;;31.64;37.33;97689.56;5088273;28;20039;-84
2022/08/14 04:46:19;;;;;;;5.00;4.50;;;;;;;32.02;36.89;97695.00;5091592;28;20480;-84
2022/08/14 04:48:45;;;;;;;5.10;4.57;;;;;;;32.96;35.49;97683.84;5094926;28;20033;-84
2022/08/14 04:51:14;;;;;;;5.05;4.38;;;;;;;32.64;35.84;97683.06;5093347;28;20436;-85
2022/08/14 04:53:44;;;;;;;6.13;4.97;;;;;;;32.75;35.30;97682.38;5094322;28;20082;-84
2022/08/14 04:56:12;;;;;;;6.00;5.50;;;;;;;33.36;34.58;97678.00;5092636;28;20035;-84
2022/08/14 04:58:41;;;;;;;4.70;4.30;;;;;;;33.79;33.74;97672.31;5108067;28;20514;-84
2022/08/14 05:01:09;;;;;;;5.53;4.90;;;;;;;32.02;36.69;97680.78;5090746;28;20047;-84
2022/08/14 05:03:37;;;;;;;5.45;4.95;;;;;;;32.63;36.14;97686.41;5089344;28;20034;-84
2022/08/14 05:06:09;;;;;;;7.45;5.00;;;;;;;33.06;35.33;97679.59;5092134;28;20060;-84
2022/08/14 05:08:36;;;;;;;7.25;5.00;;;;;;;31.80;37.70;97686.19;5092343;28;20036;-84
2022/08/14 05:11:06;;;;;;;5.32;4.82;;;;;;;32.79;35.97;97679.31;5092270;28;20053;-84
2022/08/14 05:13:33;;;;;;;5.85;5.30;;;;;;;32.37;36.50;97680.69;5093749;28;20044;-83
2022/08/14 05:16:00;;;;;;;6.80;5.43;;;;;;;32.79;35.62;97685.78;5093562;28;20024;-83
2022/08/14 05:18:36;;;;;;;8.75;5.97;;;;;;;31.02;39.71;97686.25;5094282;28;20111;-83
2022/08/14 05:21:05;;;;;;;5.57;5.07;;;;;;;32.02;37.84;97685.72;5109717;28;20365;-82
2022/08/14 05:23:34;;;;;;;7.68;5.28;;;;;;;32.79;36.51;97674.44;5094232;28;20491;-82
2022/08/14 05:26:04;;;;;;;6.88;5.03;;;;;;;33.33;35.12;97673.31;5083670;28;20032;-82
2022/08/14 05:28:35;;;;;;;4.93;4.43;;;;;;;33.84;34.31;97675.16;5090953;28;20032;-83
2022/08/14 05:31:05;;;;;;;4.70;4.20;;;;;;;34.27;33.88;97669.41;5084307;28;20088;-82
2022/08/14 05:33:33;;;;;;;4.85;4.40;;;;;;;34.24;33.58;97673.31;5083546;28;20407;-83
2022/08/14 05:36:04;;;;;;;10.02;5.03;;;;;;;34.37;33.44;97660.13;5080619;28;20031;-83
2022/08/14 05:38:36;;;;;;;4.90;4.50;;;;;;;34.53;33.01;97662.25;5081799;28;20028;-83
2022/08/14 05:41:05;;;;;;;5.57;4.95;;;;;;;34.44;33.31;97665.31;5084132;28;20027;-83
2022/08/14 05:43:31;;;;;;;8.48;6.10;;;;;;;34.45;33.40;97661.16;5086770;28;20039;-83
2022/08/14 05:45:58;;;;;;;5.18;4.68;;;;;;;34.22;33.66;97659.53;5088243;28;20047;-83
2022/08/14 05:48:25;;;;;;;5.40;4.90;;;;;;;33.69;34.70;97657.50;5083864;28;20116;-83
2022/08/14 05:50:53;;;;;;;5.70;5.15;;;;;;;33.33;35.31;97664.75;5090086;28;20055;-82
2022/08/14 05:53:21;;;;;;;4.88;4.38;;;;;;;33.27;35.62;97671.72;5081389;28;20373;-82
2022/08/14 05:55:48;;;;;;;6.13;4.25;;;;;;;33.62;35.32;97662.91;5089840;28;20051;-84
2022/08/14 05:58:14;;;;;;;7.25;4.25;;;;;;;33.75;34.80;97672.53;5086976;28;20037;-83
2022/08/14 06:00:42;;;;;;;5.07;4.57;;;;;;;34.38;33.97;97678.00;5086254;28;20036;-84
2022/08/14 06:03:15;;;;;;;4.63;4.10;;;;;;;34.21;34.42;97671.47;5087165;28;20428;-84
2022/08/14 06:05:43;;;;;;;3.97;3.58;;;;;;;34.48;34.15;97676.47;5083964;28;20025;-84
2022/08/14 06:08:24;;;;;;;5.32;4.38;;;;;;;34.87;33.66;97668.00;5085450;28;20119;-84
2022/08/14 06:10:52;;;;;;;4.20;3.80;;;;;;;35.17;32.84;97674.78;5090274;28;20028;-84
2022/08/14 06:13:19;;;;;;;6.30;3.72;;;;;;;34.57;32.23;97674.19;5091072;28;20441;-84
2022/08/14 06:15:46;;;;;;;6.20;3.47;;;;;;;33.78;34.88;97668.69;5085020;28;20040;-84
2022/08/14 06:18:13;;;;;;;3.85;3.53;;;;;;;32.89;36.36;97675.78;5085288;28;20130;-83
2022/08/14 06:20:39;;;;;;;3.53;3.13;;;;;;;32.74;37.16;97675.16;5086155;28;20024;-84
2022/08/14 06:23:06;;;;;;;4.13;3.35;;;;;;;33.12;36.51;97676.75;5086754;28;20028;-84
2022/08/14 06:25:32;;;;;;;3.25;3.03;;;;;;;33.66;35.85;97672.75;5079934;28;20037;-84
2022/08/14 06:27:58;;;;;;;3.90;3.58;;;;;;;33.31;35.38;97680.78;5086486;28;20460;-84
2022/08/14 06:30:28;;;;;;;3.58;3.20;;;;;;;33.89;34.74;97671.56;5084386;28;20086;-84
2022/08/14 06:32:55;;;;;;;2.55;2.35;;;;;;;34.56;34.61;97678.34;5083200;28;20118;-84
2022/08/14 06:35:22;;;;;;;3.75;3.45;;;;;;;34.47;33.36;97672.06;5081978;28;20047;-84
2022/08/14 06:37:54;;;;;;;2.95;2.75;;;;;;;33.41;36.22;97665.88;5083237;28;20078;-84
2022/08/14 06:40:25;;;;;;;3.30;2.97;;;;;;;33.13;36.66;97670.59;5090178;28;20032;-84
2022/08/14 06:42:51;;;;;;;2.80;2.60;;;;;;;33.04;36.56;97670.00;5090712;28;20701;-84
2022/08/14 06:45:18;;;;;;;2.85;2.65;;;;;;;33.72;35.27;97676.44;5083658;28;20039;-84
2022/08/14 06:47:46;;;;;;;2.63;2.35;;;;;;;34.30;34.23;97677.72;5087051;28;20116;-83
2022/08/14 06:50:15;;;;;;;2.53;2.33;;;;;;;34.92;34.10;97665.13;5086177;28;20558;-84
2022/08/14 06:52:42;;;;;;;2.80;2.60;;;;;;;35.05;32.92;97656.09;5082582;28;20036;-84
2022/08/14 06:55:10;;;;;;;2.35;2.08;;;;;;;35.02;33.21;97668.53;5088724;28;20069;-84
2022/08/14 06:57:41;;;;;;;2.88;2.50;;;;;;;34.31;34.57;97672.81;5089473;28;20569;-83
2022/08/14 07:00:10;;;;;;;2.40;2.30;;;;;;;34.00;34.48;97668.75;5088706;28;20035;-84
2022/08/14 07:08:16;;;;;;;2.63;2.42;;;;;;;34.20;34.16;97672.75;5092787;28;20078;-82
2022/08/14 07:10:44;;;;;;;3.08;2.30;;;;;;;34.38;33.49;97667.38;5091101;28;20048;-82
2022/08/14 07:13:12;;;;;;;2.35;2.15;;;;;;;33.50;35.38;97667.72;5084303;28;20035;-82
2022/08/14 07:15:38;;;;;;;3.78;2.05;;;;;;;33.19;35.65;97670.59;5090718;28;20059;-83
2022/08/14 07:18:05;;;;;;;2.03;1.90;;;;;;;33.35;35.93;97675.66;5090654;28;20028;-82
2022/08/14 07:20:32;;;;;;;3.85;2.20;;;;;;;33.60;35.46;97669.13;5094655;28;20403;-83
2022/08/14 07:23:04;;;;;;;2.25;2.05;;;;;;;34.04;34.51;97671.41;5092065;28;20039;-82
2022/08/14 07:25:30;;;;;;;2.65;2.28;;;;;;;33.12;35.75;97669.00;5091457;28;20111;-83
2022/08/14 07:27:56;;;;;;;2.90;2.00;;;;;;;33.16;36.22;97666.75;5092065;28;20031;-82
2022/08/14 07:30:23;;;;;;;4.28;2.65;;;;;;;33.07;36.49;97669.00;5094389;28;20617;-83
2022/08/14 07:32:49;;;;;;;2.58;2.38;;;;;;;33.26;35.72;97670.16;5090476;28;20036;-82
2022/08/14 07:35:15;;;;;;;2.78;2.50;;;;;;;33.53;35.39;97674.50;5092215;28;20040;-82
2022/08/14 07:37:41;;;;;;;3.33;3.03;;;;;;;34.24;34.73;97671.22;5093027;28;20114;-82
2022/08/14 07:40:08;;;;;;;2.53;2.33;;;;;;;34.96;34.04;97673.44;5092930;28;20028;-82
2022/08/14 07:42:34;;;;;;;2.03;1.90;;;;;;;35.57;33.78;97667.72;5093866;28;20488;-82
2022/08/14 07:45:00;;;;;;;3.05;1.90;;;;;;;36.02;32.11;97674.84;5090280;28;20043;-82
2022/08/14 07:47:27;;;;;;;2.10;1.98;;;;;;;36.38;31.60;97673.66;5092692;28;20036;-82
2022/08/14 07:50:10;;;;;;;2.35;2.17;;;;;;;36.47;31.94;97675.44;5092228;28;20109;-82
2022/08/14 07:52:37;;;;;;;2.50;2.30;;;;;;;36.63;31.67;97671.69;5087512;28;20039;-82
2022/08/14 07:55:07;;;;;;;2.42;2.22;;;;;;;36.86;31.75;97675.16;5092882;28;20028;-82
2022/08/14 07:57:33;;;;;;;2.03;1.92;;;;;;;36.93;31.36;97678.25;5092955;28;20376;-83
2022/08/14 08:00:00;;;;;;;2.58;2.25;;;;;;;36.65;31.68;97680.53;5093357;28;20032;-83
2022/08/14 08:02:29;;;;;;;2.67;2.47;;;;;;;36.63;32.00;97677.41;5092295;28;20039;-83
2022/08/14 08:04:59;;;;;;;2.53;2.10;;;;;;;36.55;31.97;97676.44;5086304;28;20040;-83
2022/08/14 08:07:29;;;;;;;4.35;2.10;;;;;;;36.65;31.33;97678.44;5091795;28;20055;-83
2022/08/14 08:09:56;;;;;;;2.03;1.92;;;;;;;36.75;31.98;97684.63;5092935;28;20032;-83
2022/08/14 08:12:24;;;;;;;3.17;2.35;;;;;;;36.68;30.84;97679.47;5087805;28;22451;-83
2022/08/14 08:14:51;;;;;;;2.25;2.13;;;;;;;36.59;31.83;97679.78;5090927;28;20118;-83
2022/08/14 08:17:22;;;;;;;2.03;1.92;;;;;;;36.97;33.30;97678.00;5093377;28;20032;-83
2022/08/14 08:19:48;;;;;;;2.47;2.28;;;;;;;37.31;31.60;97674.31;5086000;28;20028;-83
2022/08/14 08:22:14;;;;;;;2.50;2.30;;;;;;;36.77;31.92;97679.13;5086227;28;20101;-82
2022/08/14 08:24:42;;;;;;;2.95;2.67;;;;;;;35.34;34.75;97667.72;5091725;28;20044;-82
2022/08/14 08:27:15;;;;;;;2.85;2.55;;;;;;;35.50;35.34;97673.94;5092292;28;20032;-82
2022/08/14 08:29:41;;;;;;;2.90;1.90;;;;;;;35.96;32.49;97672.00;5088530;28;20044;-82
2022/08/14 08:32:07;;;;;;;1.67;1.58;;;;;;;36.71;32.70;97678.41;5088824;28;20032;-81
2022/08/14 08:34:47;;;;;;;1.98;1.80;;;;;;;37.10;32.81;97678.91;5087915;28;20057;-82
2022/08/14 08:37:14;;;;;;;2.20;2.00;;;;;;;37.02;31.71;97674.28;5090748;28;20050;-82
2022/08/14 08:39:47;;;;;;;2.00;1.90;;;;;;;37.03;31.52;97682.34;5091444;28;20039;-82
2022/08/14 08:42:23;;;;;;;1.77;1.60;;;;;;;37.21;30.26;97675.94;5091890;28;20032;-82
2022/08/14 08:44:55;;;;;;;1.70;1.60;;;;;;;37.50;31.38;97668.69;5090958;28;20036;-82
2022/08/14 08:47:21;;;;;;;1.90;1.80;;;;;;;37.79;30.11;97664.16;5090412;28;20067;-82
2022/08/14 08:49:47;;;;;;;3.80;1.95;;;;;;;37.85;30.13;97665.72;5091590;28;20047;-80
2022/08/14 08:52:13;;;;;;;2.10;1.90;;;;;;;37.64;30.78;97658.88;5089070;28;20028;-81
2022/08/14 08:54:39;;;;;;;1.75;1.65;;;;;;;37.98;30.75;97657.19;5087631;28;20028;-81
2022/08/14 08:57:12;;;;;;;2.00;1.90;;;;;;;38.18;30.84;97653.03;5088453;28;20044;-81
2022/08/14 08:59:38;;;;;;;1.80;1.63;;;;;;;38.40;29.71;97660.56;5085199;28;20511;-81
2022/08/14 09:02:07;;;;;;;2.35;1.45;;;;;;;38.59;30.38;97658.47;5091136;28;20441;-81
2022/08/14 09:04:43;;;;;;;1.98;1.88;;;;;;;38.76;30.22;97661.91;5087251;28;20075;-82
2022/08/14 09:07:10;;;;;;;1.80;1.70;;;;;;;38.97;29.64;97660.00;5091456;28;20027;-80
2022/08/14 09:09:50;;;;;;;1.98;1.80;;;;;;;38.99;28.78;97665.97;5091788;28;20043;-80
2022/08/14 09:12:17;;;;;;;1.40;1.30;;;;;;;38.94;28.83;97663.16;5090414;28;20126;-81
2022/08/14 09:14:43;;;;;;;1.40;1.30;;;;;;;38.94;29.11;97669.69;5084868;28;20481;-81
2022/08/14 09:17:09;;;;;;;1.85;1.67;;;;;;;38.95;29.26;97659.78;5090860;28;20058;-81
2022/08/14 09:19:38;;;;;;;2.83;1.33;;;;;;;39.01;29.21;97659.66;5088230;28;20059;-81
2022/08/14 09:22:05;;;;;;;1.50;1.40;;;;;;;39.01;28.87;97662.53;5088939;28;20035;-81
2022/08/14 09:24:32;;;;;;;1.33;1.23;;;;;;;39.03;28.81;97669.28;5084896;28;20439;-79
2022/08/14 09:26:58;;;;;;;2.05;1.85;;;;;;;38.58;29.33;97660.56;5090202;28;20036;-78
2022/08/14 09:29:24;;;;;;;1.40;1.30;;;;;;;38.67;28.97;97660.16;5086687;28;20036;-78
2022/08/14 09:31:56;;;;;;;1.42;1.33;;;;;;;38.83;29.92;97654.75;5083654;28;20037;-78
2022/08/14 09:34:41;;;;;;;1.58;1.48;;;;;;;38.99;30.10;97653.69;5081002;28;20032;-79
2022/08/14 09:37:19;;;;;;;1.60;1.50;;;;;;;38.61;30.03;97653.75;5091261;28;20068;-79
2022/08/14 09:40:09;;;;;;;1.83;1.73;;;;;;;38.50;29.73;97656.78;5091318;28;20032;-79
2022/08/14 09:43:13;;;;;;;1.70;1.60;;;;;;;38.38;29.97;97657.47;5088936;28;20119;-79
2022/08/14 09:45:46;;;;;;;1.73;1.60;;;;;;;37.66;31.12;97653.38;5100696;28;20404;-79
2022/08/14 09:48:14;;;;;;;2.15;1.95;;;;;;;37.47;32.59;97660.38;5085414;28;20525;-79
2022/08/14 09:50:52;;;;;;;1.83;1.70;;;;;;;36.74;33.37;97669.53;5089205;28;20071;-79
2022/08/14 09:53:40;;;;;;;2.35;2.17;;;;;;;36.33;33.49;97665.09;5089547;28;20039;-79
2022/08/14 09:56:07;;;;;;;1.80;1.70;;;;;;;36.60;32.44;97670.66;5086261;28;20126;-78
2022/08/14 09:58:41;;;;;;;1.77;1.67;;;;;;;36.32;33.48;97667.16;5089650;28;20391;-78
2022/08/14 10:01:13;;;;;;;1.60;1.50;;;;;;;36.07;34.60;97656.91;5085015;28;20161;-78
2022/08/14 10:03:51;;;;;;;1.60;1.50;;;;;;;35.81;35.40;97656.47;5084163;28;20116;-79
2022/08/14 10:06:24;;;;;;;2.13;1.90;;;;;;;35.30;35.47;97655.00;5090349;28;20074;-78
2022/08/14 10:08:56;;;;;;;1.75;1.65;;;;;;;34.95;33.97;97657.59;5090136;28;20107;-78
2022/08/14 10:11:28;;;;;;;3.30;1.77;;;;;;;35.77;32.53;97653.91;5081423;28;20079;-80
2022/08/14 10:14:10;;;;;;;1.63;1.52;;;;;;;35.95;34.54;97655.38;5090310;28;20035;-79
2022/08/14 10:16:42;;;;;;;1.70;1.60;;;;;;;35.99;34.76;97642.38;5081660;28;20024;-79
2022/08/14 10:19:12;;;;;;;2.65;1.52;;;;;;;36.80;31.98;97645.81;5085172;28;20413;-78
2022/08/14 10:21:40;;;;;;;1.70;1.60;;;;;;;37.72;30.85;97639.75;5085304;28;20051;-79
2022/08/14 10:24:09;;;;;;;1.48;1.38;;;;;;;37.50;31.79;97648.63;5086500;28;20075;-79
2022/08/14 10:26:36;;;;;;;1.70;1.60;;;;;;;36.46;33.75;97648.13;5090534;28;20043;-79
2022/08/14 10:29:09;;;;;;;1.70;1.60;;;;;;;36.71;32.82;97644.84;5086617;28;20039;-79
2022/08/14 10:31:36;;;;;;;1.70;1.60;;;;;;;37.09;33.06;97645.06;5087967;28;20405;-82
2022/08/14 10:34:02;;;;;;;4.90;1.40;;;;;;;37.68;31.87;97647.09;5083088;28;20032;-81
2022/08/14 10:36:34;;;;;;;1.77;1.67;;;;;;;36.71;35.24;97649.81;5087380;28;20039;-81
2022/08/14 10:39:07;;;;;;;1.45;1.35;;;;;;;35.90;35.81;97659.03;5085975;28;20028;-81
2022/08/14 10:41:42;;;;;;;1.80;1.70;;;;;;;35.88;36.35;97650.97;5088770;28;20040;-81
2022/08/14 10:44:13;;;;;;;1.55;1.45;;;;;;;37.18;31.53;97653.34;5089975;28;20044;-80
2022/08/14 10:47:04;;;;;;;1.25;1.20;;;;;;;37.38;32.76;97650.03;5087498;28;20040;-81
2022/08/14 10:49:30;;;;;;;1.38;1.27;;;;;;;37.62;31.39;97652.91;5083857;28;20032;-81
2022/08/14 10:52:06;;;;;;;2.35;1.08;;;;;;;38.61;31.69;97645.13;5088602;28;20060;-82
2022/08/14 10:54:47;;;;;;;1.13;1.10;;;;;;;39.39;30.57;97649.63;5089691;28;20054;-81
2022/08/14 10:57:26;;;;;;;1.38;1.27;;;;;;;38.15;30.29;97650.47;5091745;28;20557;-81
2022/08/14 11:00:12;;;;;;;1.88;1.48;;;;;;;37.43;32.03;97646.34;5091416;28;20089;-81
2022/08/14 11:02:40;;;;;;;2.30;0.90;;;;;;;37.96;30.88;97650.44;5088307;28;20047;-80
2022/08/14 11:05:14;;;;;;;1.10;1.10;;;;;;;37.87;31.93;97651.59;5086858;28;20140;-81
2022/08/14 11:07:55;;;;;;;1.58;1.48;;;;;;;37.52;31.14;97643.13;5092818;28;20396;-80
2022/08/14 11:10:25;;;;;;;1.60;1.50;;;;;;;36.91;34.78;97640.81;5085827;28;20392;-80
2022/08/14 11:12:56;;;;;;;1.27;1.00;;;;;;;36.59;33.38;97648.31;5086717;28;20108;-81
2022/08/14 11:15:26;;;;;;;0.93;0.93;;;;;;;36.82;34.36;97643.19;5088368;28;20028;-80
2022/08/14 11:17:53;;;;;;;1.33;1.23;;;;;;;37.24;33.31;97642.59;5092638;28;20032;-81
2022/08/14 11:20:22;;;;;;;1.55;1.38;;;;;;;36.39;33.07;97640.88;5087247;28;20115;-80
2022/08/14 11:22:55;;;;;;;1.42;1.33;;;;;;;36.05;35.76;97648.88;5093191;28;20446;-80
2022/08/14 11:25:24;;;;;;;0.90;0.90;;;;;;;36.67;32.17;97638.63;5094077;28;20411;-80
2022/08/14 11:27:53;;;;;;;1.27;1.17;;;;;;;37.56;32.79;97637.09;5087138;28;20055;-80
2022/08/14 11:30:22;;;;;;;1.20;1.10;;;;;;;37.11;31.94;97640.38;5094324;28;20120;-80
2022/08/14 11:32:50;;;;;;;0.90;0.90;;;;;;;37.18;35.88;97639.03;5090829;28;20058;-81
2022/08/14 11:35:19;;;;;;;1.20;1.10;;;;;;;36.90;34.73;97644.94;5090195;28;20032;-80
2022/08/14 11:37:58;;;;;;;0.80;0.80;;;;;;;36.60;32.98;97639.19;5091041;28;20043;-81
2022/08/14 11:40:33;;;;;;;0.98;0.98;;;;;;;36.83;32.85;97644.78;5089839;28;20403;-81
2022/08/14 11:43:01;;;;;;;0.85;0.85;;;;;;;37.22;36.46;97642.38;5089068;28;20096;-80
2022/08/14 11:45:33;;;;;;;1.15;1.05;;;;;;;35.92;32.73;97645.75;5093692;28;20024;-81
2022/08/14 11:48:14;;;;;;;0.80;0.80;;;;;;;35.49;31.77;97644.59;5092430;28;20051;-81
2022/08/14 11:50:40;;;;;;;0.80;0.80;;;;;;;36.94;31.68;97644.69;5091485;28;20449;-81
2022/08/14 11:53:18;;;;;;;0.80;0.80;;;;;;;37.51;33.55;97647.28;5093272;28;20102;-81
2022/08/14 11:55:45;;;;;;;1.05;0.73;;;;;;;36.92;34.67;97648.09;5088996;28;20118;-81
2022/08/14 11:58:12;;;;;;;0.90;0.90;;;;;;;35.49;37.06;97640.97;5092921;28;20046;-80
2022/08/14 12:00:53;;;;;;;1.58;0.95;;;;;;;35.56;33.44;97651.88;5086063;28;20041;-82